createdAt,value
2018-02-21T00:01:08.039Z,31.92
2018-02-21T00:03:39.052Z,30.65
2018-02-21T00:06:10.091Z,31.07
2018-02-21T00:08:41.117Z,31.73
2018-02-21T00:11:12.173Z,32.50
2018-02-21T00:13:43.174Z,29.40
2018-02-21T00:16:14.139Z,29.27
2018-02-21T00:18:45.132Z,32.60
2018-02-21T00:21:16.094Z,33.10
2018-02-21T00:23:47.136Z,30.20
2018-02-21T00:26:18.088Z,30.35
2018-02-21T00:28:49.140Z,32.20
2018-02-21T00:31:20.125Z,31.17
2018-02-21T00:33:51.152Z,33.00
2018-02-21T00:36:22.186Z,29.65
2018-02-21T00:38:53.259Z,31.92
2018-02-21T00:41:24.237Z,31.80
2018-02-21T00:43:55.247Z,31.87
2018-02-21T00:46:26.256Z,31.98
2018-02-21T00:48:57.236Z,30.20
2018-02-21T00:51:28.274Z,33.03
2018-02-21T00:53:59.317Z,32.90
2018-02-21T00:56:30.306Z,34.70
2018-02-21T00:59:01.362Z,34.73
2018-02-21T01:01:32.321Z,35.50
2018-02-21T01:04:03.289Z,34.90
2018-02-21T01:06:34.337Z,37.57
2018-02-21T01:09:05.285Z,35.63
2018-02-21T01:11:36.321Z,35.80
2018-02-21T01:14:07.283Z,35.03
2018-02-21T01:16:38.354Z,35.40
2018-02-21T01:19:09.309Z,37.92
2018-02-21T01:21:40.353Z,36.13
2018-02-21T01:24:11.342Z,37.80
2018-02-21T01:26:42.320Z,38.97
2018-02-21T01:29:13.383Z,37.03
2018-02-21T01:31:44.387Z,35.67
2018-02-21T01:34:15.360Z,40.10
2018-02-21T01:36:46.339Z,38.03
2018-02-21T01:39:17.324Z,37.23
2018-02-21T01:41:48.344Z,38.13
2018-02-21T01:44:19.324Z,38.10
2018-02-21T01:46:50.316Z,37.10
2018-02-21T01:49:21.320Z,38.17
2018-02-21T01:51:52.346Z,38.80
2018-02-21T01:54:23.371Z,37.65
2018-02-21T01:56:54.323Z,38.50
2018-02-21T01:59:25.343Z,37.97
2018-02-21T02:01:56.329Z,37.22
2018-02-21T02:04:27.321Z,40.53
2018-02-21T02:06:58.315Z,38.58
2018-02-21T02:09:29.362Z,40.95
2018-02-21T02:12:00.339Z,39.22
2018-02-21T02:14:31.325Z,38.23
2018-02-21T02:17:02.354Z,41.97
2018-02-21T02:19:33.360Z,38.97
2018-02-21T02:22:04.363Z,41.22
2018-02-21T02:24:35.293Z,36.80
2018-02-21T02:27:06.337Z,36.83
2018-02-21T02:29:37.320Z,41.90
2018-02-21T02:32:08.496Z,39.47
2018-02-21T02:34:39.473Z,41.97
2018-02-21T02:37:10.443Z,41.30
2018-02-21T02:40:05.455Z,42.67
2018-02-21T02:42:36.496Z,38.50
2018-02-21T02:45:07.521Z,40.67
2018-02-21T02:47:38.507Z,38.05
2018-02-21T02:50:09.532Z,40.30
2018-02-21T02:52:40.486Z,40.42
2018-02-21T02:55:11.467Z,39.97
2018-02-21T02:57:42.421Z,39.93
2018-02-21T03:00:13.453Z,38.57
2018-02-21T03:02:44.424Z,39.97
2018-02-21T03:05:15.438Z,39.77
2018-02-21T03:07:46.415Z,38.70
2018-02-21T03:10:17.384Z,37.30
2018-02-21T03:12:48.368Z,40.17
2018-02-21T03:15:19.348Z,38.10
2018-02-21T03:17:50.331Z,40.50
2018-02-21T03:20:21.300Z,42.50
2018-02-21T03:22:52.289Z,38.27
2018-02-21T03:25:23.286Z,43.05
2018-02-21T03:27:54.271Z,40.92
2018-02-21T03:30:25.241Z,41.40
2018-02-21T03:32:56.244Z,39.33
2018-02-21T03:35:27.198Z,41.13
2018-02-21T03:37:58.151Z,41.53
2018-02-21T03:40:29.147Z,36.77
2018-02-21T03:43:00.131Z,38.50
2018-02-21T03:45:31.136Z,41.63
2018-02-21T03:48:02.127Z,39.15
2018-02-21T03:50:33.153Z,38.38
2018-02-21T03:53:04.159Z,36.35
2018-02-21T03:55:35.149Z,37.95
2018-02-21T03:58:06.155Z,36.23
2018-02-21T04:00:37.132Z,38.40
2018-02-21T04:03:08.137Z,36.70
2018-02-21T04:05:39.137Z,35.95
2018-02-21T04:08:10.140Z,36.45
2018-02-21T04:10:41.137Z,35.47
2018-02-21T04:13:12.134Z,39.63
2018-02-21T04:15:43.578Z,38.00
2018-02-21T04:18:14.548Z,37.72
2018-02-21T04:20:45.533Z,37.57
2018-02-21T04:23:18.192Z,36.63
2018-02-21T04:25:49.195Z,38.15
2018-02-21T04:28:20.192Z,37.45
2018-02-21T04:30:51.215Z,39.80
2018-02-21T04:33:22.157Z,37.70
2018-02-21T04:35:53.162Z,35.43
2018-02-21T04:38:24.148Z,35.42
2018-02-21T04:40:55.195Z,38.73
2018-02-21T04:43:26.211Z,40.15
2018-02-21T04:45:57.265Z,39.47
2018-02-21T04:48:28.202Z,38.22
2018-02-21T04:50:59.210Z,40.67
2018-02-21T04:53:30.293Z,41.03
2018-02-21T04:59:30.939Z,38.90
2018-02-21T05:02:01.955Z,41.15
2018-02-21T05:04:32.980Z,40.33
2018-02-21T05:07:03.961Z,41.40
2018-02-21T05:09:34.999Z,40.87
2018-02-21T05:12:06.051Z,41.33
2018-02-21T05:14:37.009Z,40.60
2018-02-21T05:17:08.030Z,41.97
2018-02-21T05:19:40.705Z,42.62
2018-02-21T05:22:11.672Z,41.95
2018-02-21T05:24:42.700Z,44.97
2018-02-21T05:27:13.710Z,42.62
2018-02-21T05:29:44.777Z,41.60
2018-02-21T05:32:15.759Z,43.47
2018-02-21T05:34:46.891Z,44.20
2018-02-21T05:37:17.942Z,39.35
2018-02-21T05:39:49.046Z,43.53
2018-02-21T05:42:20.107Z,45.17
2018-02-21T05:44:51.095Z,42.72
2018-02-21T05:47:22.109Z,45.42
2018-02-21T05:49:53.084Z,41.53
2018-02-21T05:52:24.082Z,43.20
2018-02-21T05:54:55.032Z,44.80
2018-02-21T05:57:26.015Z,44.50
2018-02-21T05:59:57.030Z,45.17
2018-02-21T06:02:28.014Z,47.17
2018-02-21T06:04:59.047Z,47.28
2018-02-21T06:07:30.021Z,48.55
2018-02-21T06:10:01.024Z,44.23
2018-02-21T06:12:32.004Z,48.80
2018-02-21T06:15:03.012Z,45.67
2018-02-21T06:17:33.987Z,46.05
2018-02-21T06:20:04.973Z,44.57
2018-02-21T06:22:35.935Z,42.80
2018-02-21T06:25:07.018Z,45.57
2018-02-21T06:27:38.030Z,45.35
2018-02-21T06:30:09.020Z,46.85
2018-02-21T06:32:40.020Z,43.63
2018-02-21T06:35:10.986Z,45.22
2018-02-21T06:37:41.989Z,41.43
2018-02-21T06:40:12.930Z,43.05
2018-02-21T06:42:43.961Z,41.17
2018-02-21T06:45:14.939Z,41.80
2018-02-21T06:47:45.949Z,43.93
2018-02-21T06:50:17.002Z,41.28
2018-02-21T06:52:54.853Z,39.40
2018-02-21T06:55:25.823Z,41.10
2018-02-21T06:57:56.810Z,40.47
2018-02-21T07:00:27.848Z,43.03
2018-02-21T07:02:58.827Z,39.85
2018-02-21T07:05:29.856Z,41.20
2018-02-21T07:08:00.845Z,44.53
2018-02-21T07:10:31.839Z,41.63
2018-02-21T07:13:02.827Z,40.43
2018-02-21T07:15:33.865Z,40.30
2018-02-21T07:18:04.818Z,40.80
2018-02-21T07:20:35.797Z,39.27
2018-02-21T07:23:06.814Z,38.83
2018-02-21T07:25:37.838Z,39.08
2018-02-21T07:28:08.827Z,40.92
2018-02-21T07:30:39.834Z,39.57
2018-02-21T07:33:10.872Z,41.22
2018-02-21T07:35:41.887Z,40.12
2018-02-21T07:38:12.906Z,42.08
2018-02-21T07:40:43.993Z,38.90
2018-02-21T07:43:14.997Z,40.05
2018-02-21T07:45:45.969Z,40.67
2018-02-21T07:48:17.021Z,39.97
2018-02-21T07:50:48.036Z,40.08
2018-02-21T07:53:19.067Z,39.23
2018-02-21T07:55:50.086Z,37.43
2018-02-21T07:58:21.102Z,37.50
2018-02-21T08:00:52.100Z,39.25
2018-02-21T08:03:23.130Z,36.40
2018-02-21T08:05:54.096Z,35.13
2018-02-21T08:08:25.110Z,38.23
2018-02-21T08:10:56.176Z,41.80
2018-02-21T08:13:27.211Z,38.90
2018-02-21T08:15:58.196Z,37.83
2018-02-21T08:18:29.205Z,38.67
2018-02-21T08:21:00.200Z,39.57
2018-02-21T08:23:31.165Z,37.77
2018-02-21T08:26:02.180Z,37.60
2018-02-21T08:28:33.158Z,36.00
2018-02-21T08:31:04.165Z,34.97
2018-02-21T08:33:35.160Z,37.70
2018-02-21T08:36:06.152Z,37.97
2018-02-21T08:38:37.176Z,38.10
2018-02-21T08:41:08.232Z,39.63
2018-02-21T08:43:39.294Z,42.17
2018-02-21T08:46:10.332Z,41.97
2018-02-21T08:48:41.311Z,41.67
2018-02-21T08:51:12.263Z,39.30
2018-02-21T08:53:43.280Z,42.33
2018-02-21T08:56:14.278Z,40.30
2018-02-21T08:58:45.258Z,44.57
2018-02-21T09:01:16.270Z,42.23
2018-02-21T09:03:47.253Z,43.43
2018-02-21T09:06:18.306Z,41.80
2018-02-21T09:08:49.329Z,42.20
2018-02-21T09:11:20.368Z,44.73
2018-02-21T09:13:51.347Z,42.53
2018-02-21T09:16:22.355Z,42.83
2018-02-21T09:18:53.370Z,44.57
2018-02-21T09:21:24.408Z,44.70
2018-02-21T09:23:55.422Z,44.13
2018-02-21T09:26:26.363Z,45.00
2018-02-21T09:28:57.361Z,45.07
2018-02-21T09:31:28.348Z,45.03
2018-02-21T09:33:59.314Z,41.50
2018-02-21T09:36:30.303Z,43.17
2018-02-21T09:39:01.295Z,41.43
2018-02-21T09:41:32.332Z,42.70
2018-02-21T09:44:03.287Z,42.20
2018-02-21T09:46:34.230Z,42.97
2018-02-21T09:49:05.245Z,40.33
2018-02-21T09:51:36.265Z,42.17
2018-02-21T09:54:07.271Z,43.07
2018-02-21T09:56:38.238Z,41.80
2018-02-21T09:59:09.244Z,40.60
2018-02-21T10:01:40.186Z,42.37
2018-02-21T10:04:11.143Z,41.00
2018-02-21T10:06:42.140Z,43.70
2018-02-21T10:09:13.222Z,42.17
2018-02-21T10:11:44.235Z,42.57
2018-02-21T10:14:15.263Z,44.20
2018-02-21T10:16:46.242Z,42.53
2018-02-21T10:19:17.204Z,42.63
2018-02-21T10:21:48.254Z,43.83
2018-02-21T10:24:19.269Z,43.57
2018-02-21T10:26:50.220Z,42.63
2018-02-21T10:29:21.239Z,42.57
2018-02-21T10:31:52.233Z,45.57
2018-02-21T10:34:23.232Z,44.43
2018-02-21T10:36:54.225Z,43.53
2018-02-21T10:39:25.193Z,42.07
2018-02-21T10:41:56.159Z,44.17
2018-02-21T10:44:27.138Z,43.93
2018-02-21T10:46:58.125Z,42.47
2018-02-21T10:49:29.150Z,40.53
2018-02-21T10:52:00.150Z,41.97
2018-02-21T10:54:31.118Z,41.17
2018-02-21T10:57:02.112Z,44.47
2018-02-21T10:59:33.178Z,41.50
2018-02-21T11:02:04.179Z,41.63
2018-02-21T11:04:35.226Z,40.57
2018-02-21T11:07:06.230Z,41.40
2018-02-21T11:09:37.246Z,40.23
2018-02-21T11:12:08.244Z,41.33
2018-02-21T11:14:46.221Z,40.03
2018-02-21T11:17:17.242Z,39.10
2018-02-21T11:19:48.220Z,39.03
2018-02-21T11:22:19.216Z,39.73
2018-02-21T11:24:50.250Z,40.00
2018-02-21T11:27:21.252Z,38.10
2018-02-21T11:29:52.225Z,36.67
2018-02-21T11:32:23.204Z,40.70
2018-02-21T11:34:54.183Z,38.57
2018-02-21T11:37:25.175Z,37.50
2018-02-21T11:39:56.144Z,37.43
2018-02-21T11:42:27.164Z,34.57
2018-02-21T11:44:58.152Z,34.70
2018-02-21T11:47:29.181Z,32.57
2018-02-21T11:50:00.189Z,29.33
2018-02-21T11:52:31.208Z,31.43
2018-02-21T11:55:02.219Z,30.57
2018-02-21T11:57:33.252Z,32.17
2018-02-21T12:00:04.277Z,30.80
2018-02-21T12:02:35.255Z,30.07
2018-02-21T12:05:06.293Z,30.20
2018-02-21T12:07:37.288Z,36.17
2018-02-21T12:10:08.329Z,30.77
2018-02-21T12:12:39.336Z,30.43
2018-02-21T12:15:10.361Z,28.47
2018-02-21T12:17:41.377Z,28.90
2018-02-21T12:20:12.378Z,29.67
2018-02-21T12:22:43.343Z,30.43
2018-02-21T12:25:14.339Z,29.23
2018-02-21T12:27:45.353Z,27.97
2018-02-21T12:30:16.369Z,28.90
2018-02-21T12:32:47.360Z,29.77
2018-02-21T12:35:18.346Z,26.40
2018-02-21T12:37:49.295Z,30.83
2018-02-21T12:40:26.506Z,30.13
2018-02-21T12:42:57.509Z,32.07
2018-02-21T12:45:28.501Z,28.30
2018-02-21T12:47:59.475Z,29.27
2018-02-21T12:50:30.436Z,30.47
2018-02-21T12:53:01.435Z,29.40
2018-02-21T12:55:32.407Z,27.13
2018-02-21T12:58:03.419Z,28.03
2018-02-21T13:00:34.419Z,26.67
2018-02-21T13:03:05.472Z,28.07
2018-02-21T13:05:36.420Z,26.43
2018-02-21T13:08:07.450Z,24.70
2018-02-21T13:10:38.500Z,27.90
2018-02-21T13:13:09.486Z,24.60
2018-02-21T13:15:40.523Z,24.00
2018-02-21T13:18:11.527Z,26.20
2018-02-21T13:20:42.543Z,26.30
2018-02-21T13:23:13.562Z,24.43
2018-02-21T13:25:44.585Z,22.67
2018-02-21T13:28:15.567Z,23.23
2018-02-21T13:30:46.597Z,22.97
2018-02-21T13:33:17.601Z,23.10
2018-02-21T13:35:48.618Z,22.20
2018-02-21T13:38:19.653Z,21.83
2018-02-21T13:40:50.665Z,21.80
2018-02-21T13:43:21.661Z,21.73
2018-02-21T13:45:52.694Z,22.17
2018-02-21T13:48:23.703Z,22.10
2018-02-21T13:50:54.683Z,20.90
2018-02-21T13:53:25.701Z,20.80
2018-02-21T13:55:56.766Z,20.87
2018-02-21T13:58:27.772Z,19.23
2018-02-21T14:00:58.796Z,20.83
2018-02-21T14:03:29.807Z,20.47
2018-02-21T14:06:00.834Z,19.83
2018-02-21T14:08:31.848Z,19.47
2018-02-21T14:11:02.880Z,18.73
2018-02-21T14:13:33.873Z,19.53
2018-02-21T14:16:04.872Z,19.80
2018-02-21T14:18:35.895Z,19.27
2018-02-21T14:21:06.868Z,19.83
2018-02-21T14:23:37.873Z,19.60
2018-02-21T14:26:08.852Z,18.53
2018-02-21T14:28:39.865Z,17.83
2018-02-21T14:31:10.827Z,17.67
2018-02-21T14:33:41.844Z,18.50
2018-02-21T14:36:12.870Z,17.87
2018-02-21T14:38:43.866Z,17.33
2018-02-21T14:41:14.879Z,16.03
2018-02-21T14:43:45.899Z,15.63
2018-02-21T14:46:16.887Z,17.33
2018-02-21T14:48:47.865Z,17.10
2018-02-21T14:51:18.894Z,15.53
2018-02-21T14:53:49.880Z,15.03
2018-02-21T14:56:20.923Z,16.13
2018-02-21T14:58:51.896Z,16.40
2018-02-21T15:01:22.939Z,17.93
2018-02-21T15:03:53.967Z,17.30
2018-02-21T15:06:24.938Z,15.30
2018-02-21T15:08:55.883Z,15.37
2018-02-21T15:11:26.859Z,14.50
2018-02-21T15:13:57.874Z,17.07
2018-02-21T15:16:28.878Z,15.07
2018-02-21T15:18:59.913Z,15.57
2018-02-21T15:21:30.906Z,16.30
2018-02-21T15:24:01.907Z,14.13
2018-02-21T15:26:32.904Z,13.97
2018-02-21T15:29:03.844Z,12.00
2018-02-21T15:31:34.829Z,12.57
2018-02-21T15:34:05.817Z,12.20
2018-02-21T15:36:36.882Z,12.47
2018-02-21T15:39:07.893Z,12.93
2018-02-21T15:41:38.835Z,12.90
2018-02-21T15:44:09.835Z,12.90
2018-02-21T15:46:40.861Z,11.73
2018-02-21T15:49:11.917Z,9.07
2018-02-21T15:51:42.917Z,10.87
2018-02-21T15:54:13.910Z,11.30
2018-02-21T15:56:44.909Z,9.90
2018-02-21T15:59:15.872Z,11.17
2018-02-21T16:01:46.886Z,12.67
2018-02-21T16:04:17.883Z,12.67
2018-02-21T16:06:48.885Z,11.43
2018-02-21T16:09:19.868Z,11.93
2018-02-21T16:11:50.887Z,11.83
2018-02-21T16:14:21.859Z,12.10
2018-02-21T16:16:52.881Z,12.13
2018-02-21T16:19:23.840Z,12.37
2018-02-21T16:21:54.813Z,12.63
2018-02-21T16:24:25.677Z,12.53
2018-02-21T16:26:56.717Z,12.87
2018-02-21T16:29:27.728Z,13.63
2018-02-21T16:31:58.757Z,12.83
2018-02-21T16:34:29.757Z,15.20
2018-02-21T16:37:00.737Z,14.37
2018-02-21T16:39:31.735Z,13.20
2018-02-21T16:42:02.768Z,13.67
2018-02-21T16:44:33.800Z,14.23
2018-02-21T16:47:04.756Z,13.83
2018-02-21T16:49:35.774Z,14.00
2018-02-21T16:52:06.782Z,13.10
2018-02-21T16:54:37.789Z,13.83
2018-02-21T16:57:09.298Z,13.50
2018-02-21T16:59:40.264Z,15.30
2018-02-21T17:02:11.306Z,14.87
2018-02-21T17:04:42.356Z,15.23
2018-02-21T17:07:13.430Z,14.70
2018-02-21T17:09:44.384Z,14.10
2018-02-21T17:12:15.403Z,14.07
2018-02-21T17:14:53.239Z,15.10
2018-02-21T17:17:24.224Z,14.40
2018-02-21T17:19:55.318Z,16.07
2018-02-21T17:22:26.328Z,13.93
2018-02-21T17:24:57.356Z,14.07
2018-02-21T17:27:28.369Z,15.27
2018-02-21T17:29:59.335Z,14.27
2018-02-21T17:32:30.333Z,15.40
2018-02-21T17:35:01.365Z,15.97
2018-02-21T17:37:32.400Z,16.23
2018-02-21T17:40:03.448Z,15.97
2018-02-21T17:42:34.451Z,15.93
2018-02-21T17:45:05.469Z,15.50
2018-02-21T17:47:36.450Z,16.48
2018-02-21T17:50:07.443Z,16.03
2018-02-21T17:52:38.403Z,16.30
2018-02-21T17:55:09.429Z,16.20
2018-02-21T17:57:40.424Z,17.37
2018-02-21T18:00:11.488Z,16.60
2018-02-21T18:02:42.488Z,16.07
2018-02-21T18:05:13.506Z,16.00
2018-02-21T18:07:44.540Z,17.47
2018-02-21T18:10:15.657Z,18.30
2018-02-21T18:12:46.701Z,17.13
2018-02-21T18:15:17.701Z,18.40
2018-02-21T18:17:48.747Z,18.90
2018-02-21T18:20:19.769Z,18.13
2018-02-21T18:22:52.486Z,18.03
2018-02-21T18:25:23.706Z,18.47
2018-02-21T18:27:54.728Z,18.23
2018-02-21T18:30:25.857Z,17.35
2018-02-21T18:32:57.014Z,16.53
2018-02-21T18:35:28.026Z,17.53
2018-02-21T18:37:58.991Z,17.03
2018-02-21T18:40:29.980Z,18.50
2018-02-21T18:43:01.058Z,15.87
2018-02-21T18:45:32.052Z,16.67
2018-02-21T18:48:03.042Z,16.65
2018-02-21T18:50:34.093Z,16.03
2018-02-21T18:53:05.085Z,17.55
2018-02-21T18:55:36.056Z,18.97
2018-02-21T18:58:07.096Z,17.43
2018-02-21T19:00:38.097Z,17.67
2018-02-21T19:03:09.118Z,16.92
2018-02-21T19:05:40.106Z,16.83
2018-02-21T19:08:11.152Z,18.87
2018-02-21T19:10:42.149Z,17.10
2018-02-21T19:13:13.163Z,17.00
2018-02-21T19:15:44.162Z,18.27
2018-02-21T19:18:15.196Z,16.73
2018-02-21T19:20:46.277Z,17.70
2018-02-21T19:23:17.301Z,18.85
2018-02-21T19:25:48.330Z,18.02
2018-02-21T19:28:19.373Z,18.60
2018-02-21T19:30:50.315Z,19.20
2018-02-21T19:33:21.306Z,17.43
2018-02-21T19:35:52.325Z,17.80
2018-02-21T19:38:23.317Z,18.87
2018-02-21T19:40:54.337Z,18.73
2018-02-21T19:43:25.341Z,19.45
2018-02-21T19:45:56.338Z,18.90
2018-02-21T19:48:27.321Z,19.03
2018-02-21T19:50:58.324Z,19.47
2018-02-21T19:53:29.303Z,19.23
2018-02-21T19:56:00.418Z,17.37
2018-02-21T19:58:31.414Z,17.73
2018-02-21T20:01:02.408Z,18.00
2018-02-21T20:03:33.424Z,17.73
2018-02-21T20:06:04.417Z,17.27
2018-02-21T20:08:35.448Z,17.90
2018-02-21T20:11:06.461Z,15.88
2018-02-21T20:13:37.504Z,16.37
2018-02-21T20:16:08.506Z,16.58
2018-02-21T20:18:39.519Z,15.90
2018-02-21T20:21:10.513Z,16.92
2018-02-21T20:23:41.455Z,16.93
2018-02-21T20:26:12.448Z,16.20
2018-02-21T20:28:43.416Z,16.70
2018-02-21T20:31:14.434Z,15.43
2018-02-21T20:33:45.452Z,17.12
2018-02-21T20:36:16.419Z,14.15
2018-02-21T20:38:47.466Z,15.70
2018-02-21T20:41:18.453Z,16.50
2018-02-21T20:43:49.488Z,15.87
2018-02-21T20:46:20.512Z,15.52
2018-02-21T20:48:51.556Z,16.40
2018-02-21T20:51:22.513Z,16.05
2018-02-21T20:53:53.493Z,16.00
2018-02-21T20:56:24.492Z,14.80
2018-02-21T20:58:55.508Z,15.70
2018-02-21T21:01:26.478Z,15.98
2018-02-21T21:03:57.471Z,15.87
2018-02-21T21:06:28.539Z,13.67
2018-02-21T21:09:03.096Z,15.65
2018-02-21T21:11:34.064Z,15.15
2018-02-21T21:14:05.064Z,15.63
2018-02-21T21:16:36.100Z,15.90
2018-02-21T21:19:07.120Z,16.98
2018-02-21T21:21:38.151Z,15.48
2018-02-21T21:24:09.162Z,16.45
2018-02-21T21:26:40.144Z,16.60
2018-02-21T21:29:11.173Z,15.07
2018-02-21T21:31:42.199Z,16.90
2018-02-21T21:34:13.211Z,14.68
2018-02-21T21:36:44.163Z,15.85
2018-02-21T21:39:15.156Z,15.93
2018-02-21T21:41:46.214Z,15.38
2018-02-21T21:44:17.147Z,15.73
2018-02-21T21:46:48.176Z,15.10
2018-02-21T21:49:19.149Z,16.08
2018-02-21T21:51:50.175Z,16.83
2018-02-21T21:54:21.150Z,15.75
2018-02-21T21:56:52.143Z,15.97
2018-02-21T21:59:23.173Z,16.08
2018-02-21T22:01:54.200Z,15.30
2018-02-21T22:04:25.238Z,15.40
2018-02-21T22:06:56.244Z,15.75
2018-02-21T22:09:27.242Z,15.38
2018-02-21T22:11:58.265Z,16.52
2018-02-21T22:14:29.220Z,16.02
2018-02-21T22:17:00.200Z,15.23
2018-02-21T22:19:31.199Z,16.33
2018-02-21T22:22:02.216Z,15.43
2018-02-21T22:24:33.225Z,16.15
2018-02-21T22:27:04.263Z,17.17
2018-02-21T22:29:35.283Z,16.12
2018-02-21T22:32:06.281Z,16.55
2018-02-21T22:34:37.287Z,15.30
2018-02-21T22:37:08.275Z,15.27
2018-02-21T22:39:39.300Z,16.70
2018-02-21T22:42:10.260Z,16.17
2018-02-21T22:44:41.322Z,15.67
2018-02-21T22:47:12.336Z,16.15
2018-02-21T22:49:43.320Z,16.30
2018-02-21T22:52:14.321Z,15.87
2018-02-21T22:54:45.284Z,15.73
2018-02-21T22:57:16.345Z,16.00
2018-02-21T22:59:47.303Z,14.95
2018-02-21T23:02:18.325Z,16.03
2018-02-21T23:04:49.379Z,15.77
2018-02-21T23:07:20.363Z,16.87
2018-02-21T23:09:51.342Z,15.40
2018-02-21T23:12:22.294Z,16.47
2018-02-21T23:14:53.320Z,16.50
2018-02-21T23:17:24.290Z,17.95
2018-02-21T23:19:55.365Z,15.70
2018-02-21T23:22:26.330Z,15.55
2018-02-21T23:24:57.342Z,17.87
2018-02-21T23:27:28.335Z,17.40
2018-02-21T23:29:59.320Z,16.60
2018-02-21T23:32:30.319Z,17.67
2018-02-21T23:35:01.286Z,17.25
2018-02-21T23:37:32.272Z,19.33
2018-02-21T23:40:03.263Z,17.90
2018-02-21T23:42:34.322Z,17.50
2018-02-21T23:45:05.336Z,16.33
2018-02-21T23:47:36.367Z,16.48
2018-02-21T23:50:07.336Z,17.85
2018-02-21T23:52:38.338Z,17.97
2018-02-21T23:55:09.332Z,17.50
2018-02-21T23:57:40.354Z,17.40
